sensor_id;sensor_type;location;lat;lon;timestamp;P1;durP1;ratioP1;P2;durP2;ratioP2
52015;SDS011;38032;53.326;6.472;2024-03-08T00:00:40;44.42;;;24.00;;
52015;SDS011;38032;53.326;6.472;2024-03-08T00:03:08;42.80;;;24.08;;
52015;SDS011;38032;53.326;6.472;2024-03-08T00:05:35;48.45;;;24.05;;
52015;SDS011;38032;53.326;6.472;2024-03-08T00:08:04;50.15;;;23.85;;
52015;SDS011;38032;53.326;6.472;2024-03-08T00:10:31;43.25;;;22.38;;
52015;SDS011;38032;53.326;6.472;2024-03-08T00:12:57;46.72;;;25.38;;
52015;SDS011;38032;53.326;6.472;2024-03-08T00:15:23;42.67;;;23.15;;
52015;SDS011;38032;53.326;6.472;2024-03-08T00:17:49;43.88;;;23.70;;
52015;SDS011;38032;53.326;6.472;2024-03-08T00:20:15;47.88;;;23.52;;
52015;SDS011;38032;53.326;6.472;2024-03-08T00:22:43;49.30;;;24.95;;
52015;SDS011;38032;53.326;6.472;2024-03-08T00:25:09;51.72;;;25.48;;
52015;SDS011;38032;53.326;6.472;2024-03-08T00:27:35;44.47;;;24.92;;
52015;SDS011;38032;53.326;6.472;2024-03-08T00:30:02;55.85;;;27.13;;
52015;SDS011;38032;53.326;6.472;2024-03-08T00:32:28;48.83;;;25.30;;
52015;SDS011;38032;53.326;6.472;2024-03-08T00:34:54;49.70;;;25.83;;
52015;SDS011;38032;53.326;6.472;2024-03-08T00:37:20;46.72;;;24.10;;
52015;SDS011;38032;53.326;6.472;2024-03-08T00:39:47;41.75;;;22.80;;
52015;SDS011;38032;53.326;6.472;2024-03-08T00:42:15;43.20;;;23.77;;
52015;SDS011;38032;53.326;6.472;2024-03-08T00:44:41;47.60;;;24.50;;
52015;SDS011;38032;53.326;6.472;2024-03-08T00:47:07;48.92;;;23.80;;
52015;SDS011;38032;53.326;6.472;2024-03-08T00:49:33;48.40;;;25.13;;
52015;SDS011;38032;53.326;6.472;2024-03-08T00:51:59;45.33;;;23.88;;
52015;SDS011;38032;53.326;6.472;2024-03-08T00:54:25;48.50;;;25.45;;
52015;SDS011;38032;53.326;6.472;2024-03-08T00:56:51;46.88;;;24.65;;
52015;SDS011;38032;53.326;6.472;2024-03-08T00:59:17;49.55;;;24.52;;
52015;SDS011;38032;53.326;6.472;2024-03-08T01:01:43;45.97;;;24.70;;
52015;SDS011;38032;53.326;6.472;2024-03-08T01:04:09;47.67;;;25.15;;
52015;SDS011;38032;53.326;6.472;2024-03-08T01:06:35;49.08;;;26.35;;
52015;SDS011;38032;53.326;6.472;2024-03-08T01:09:01;46.53;;;23.52;;
52015;SDS011;38032;53.326;6.472;2024-03-08T01:11:27;43.28;;;23.85;;
52015;SDS011;38032;53.326;6.472;2024-03-08T01:13:53;46.53;;;25.17;;
52015;SDS011;38032;53.326;6.472;2024-03-08T01:16:19;46.13;;;24.73;;
52015;SDS011;38032;53.326;6.472;2024-03-08T01:18:46;47.67;;;24.90;;
52015;SDS011;38032;53.326;6.472;2024-03-08T01:21:12;50.45;;;24.50;;
52015;SDS011;38032;53.326;6.472;2024-03-08T01:23:38;48.00;;;24.55;;
52015;SDS011;38032;53.326;6.472;2024-03-08T01:26:04;48.05;;;24.80;;
52015;SDS011;38032;53.326;6.472;2024-03-08T01:28:31;47.90;;;24.85;;
52015;SDS011;38032;53.326;6.472;2024-03-08T01:30:59;47.05;;;24.42;;
52015;SDS011;38032;53.326;6.472;2024-03-08T01:33:25;47.15;;;23.95;;
52015;SDS011;38032;53.326;6.472;2024-03-08T01:35:52;46.42;;;24.08;;
52015;SDS011;38032;53.326;6.472;2024-03-08T01:38:18;42.50;;;23.50;;
52015;SDS011;38032;53.326;6.472;2024-03-08T01:40:46;50.58;;;24.63;;
52015;SDS011;38032;53.326;6.472;2024-03-08T01:43:20;42.00;;;22.63;;
52015;SDS011;38032;53.326;6.472;2024-03-08T01:45:48;45.72;;;22.67;;
52015;SDS011;38032;53.326;6.472;2024-03-08T01:48:14;44.33;;;23.27;;
52015;SDS011;38032;53.326;6.472;2024-03-08T01:50:41;43.08;;;23.00;;
52015;SDS011;38032;53.326;6.472;2024-03-08T01:53:08;45.90;;;24.27;;
52015;SDS011;38032;53.326;6.472;2024-03-08T01:55:35;41.20;;;22.75;;
52015;SDS011;38032;53.326;6.472;2024-03-08T01:58:02;42.92;;;22.65;;
52015;SDS011;38032;53.326;6.472;2024-03-08T02:00:30;42.95;;;22.73;;
52015;SDS011;38032;53.326;6.472;2024-03-08T02:02:57;39.25;;;22.10;;
52015;SDS011;38032;53.326;6.472;2024-03-08T02:05:23;42.83;;;22.48;;
52015;SDS011;38032;53.326;6.472;2024-03-08T02:07:49;39.50;;;22.08;;
52015;SDS011;38032;53.326;6.472;2024-03-08T02:10:14;43.55;;;21.90;;
52015;SDS011;38032;53.326;6.472;2024-03-08T02:12:41;44.80;;;22.30;;
52015;SDS011;38032;53.326;6.472;2024-03-08T02:15:07;39.90;;;22.52;;
52015;SDS011;38032;53.326;6.472;2024-03-08T02:17:33;36.97;;;21.23;;
52015;SDS011;38032;53.326;6.472;2024-03-08T02:19:59;39.38;;;21.23;;
52015;SDS011;38032;53.326;6.472;2024-03-08T02:22:27;40.78;;;21.65;;
52015;SDS011;38032;53.326;6.472;2024-03-08T02:24:54;40.90;;;20.83;;
52015;SDS011;38032;53.326;6.472;2024-03-08T02:27:24;42.58;;;22.52;;
52015;SDS011;38032;53.326;6.472;2024-03-08T02:29:50;39.80;;;21.30;;
52015;SDS011;38032;53.326;6.472;2024-03-08T02:32:23;46.00;;;22.30;;
52015;SDS011;38032;53.326;6.472;2024-03-08T02:34:49;41.83;;;22.17;;
52015;SDS011;38032;53.326;6.472;2024-03-08T02:37:16;37.88;;;20.02;;
52015;SDS011;38032;53.326;6.472;2024-03-08T02:39:42;37.45;;;20.52;;
52015;SDS011;38032;53.326;6.472;2024-03-08T02:42:08;39.67;;;20.20;;
52015;SDS011;38032;53.326;6.472;2024-03-08T02:44:34;39.45;;;20.40;;
52015;SDS011;38032;53.326;6.472;2024-03-08T02:47:00;37.17;;;20.88;;
52015;SDS011;38032;53.326;6.472;2024-03-08T02:49:26;38.10;;;20.10;;
52015;SDS011;38032;53.326;6.472;2024-03-08T02:51:52;34.78;;;20.55;;
52015;SDS011;38032;53.326;6.472;2024-03-08T02:54:19;36.95;;;21.02;;
52015;SDS011;38032;53.326;6.472;2024-03-08T02:56:46;36.50;;;20.25;;
52015;SDS011;38032;53.326;6.472;2024-03-08T02:59:12;37.22;;;19.85;;
52015;SDS011;38032;53.326;6.472;2024-03-08T03:01:38;36.97;;;20.38;;
52015;SDS011;38032;53.326;6.472;2024-03-08T03:04:04;35.63;;;20.13;;
52015;SDS011;38032;53.326;6.472;2024-03-08T03:06:30;39.88;;;19.48;;
52015;SDS011;38032;53.326;6.472;2024-03-08T03:08:56;36.03;;;19.60;;
52015;SDS011;38032;53.326;6.472;2024-03-08T03:11:22;38.28;;;19.17;;
52015;SDS011;38032;53.326;6.472;2024-03-08T03:13:48;38.60;;;20.17;;
52015;SDS011;38032;53.326;6.472;2024-03-08T03:16:18;33.90;;;19.33;;
52015;SDS011;38032;53.326;6.472;2024-03-08T03:18:45;34.45;;;18.75;;
52015;SDS011;38032;53.326;6.472;2024-03-08T03:21:12;37.70;;;19.58;;
52015;SDS011;38032;53.326;6.472;2024-03-08T03:23:39;34.50;;;19.50;;
52015;SDS011;38032;53.326;6.472;2024-03-08T03:26:06;38.83;;;19.73;;
52015;SDS011;38032;53.326;6.472;2024-03-08T03:28:33;35.42;;;19.05;;
52015;SDS011;38032;53.326;6.472;2024-03-08T03:30:59;35.90;;;19.52;;
52015;SDS011;38032;53.326;6.472;2024-03-08T03:33:25;33.42;;;19.00;;
52015;SDS011;38032;53.326;6.472;2024-03-08T03:35:51;37.38;;;18.88;;
52015;SDS011;38032;53.326;6.472;2024-03-08T03:38:17;34.70;;;18.77;;
52015;SDS011;38032;53.326;6.472;2024-03-08T03:40:45;35.05;;;18.40;;
52015;SDS011;38032;53.326;6.472;2024-03-08T03:43:11;34.72;;;19.30;;
52015;SDS011;38032;53.326;6.472;2024-03-08T03:45:37;32.72;;;17.88;;
52015;SDS011;38032;53.326;6.472;2024-03-08T03:48:05;35.20;;;18.63;;
52015;SDS011;38032;53.326;6.472;2024-03-08T03:50:34;34.15;;;18.77;;
52015;SDS011;38032;53.326;6.472;2024-03-08T03:53:00;33.90;;;17.70;;
52015;SDS011;38032;53.326;6.472;2024-03-08T03:55:27;37.10;;;18.23;;
52015;SDS011;38032;53.326;6.472;2024-03-08T03:57:53;37.28;;;18.55;;
52015;SDS011;38032;53.326;6.472;2024-03-08T04:00:19;31.05;;;18.42;;
52015;SDS011;38032;53.326;6.472;2024-03-08T04:02:45;37.55;;;18.55;;
52015;SDS011;38032;53.326;6.472;2024-03-08T04:05:11;37.15;;;19.05;;
52015;SDS011;38032;53.326;6.472;2024-03-08T04:07:38;32.08;;;19.10;;
52015;SDS011;38032;53.326;6.472;2024-03-08T04:10:05;31.83;;;18.95;;
52015;SDS011;38032;53.326;6.472;2024-03-08T04:12:33;33.88;;;18.65;;
52015;SDS011;38032;53.326;6.472;2024-03-08T04:14:59;34.30;;;18.65;;
52015;SDS011;38032;53.326;6.472;2024-03-08T04:17:25;33.15;;;17.73;;
52015;SDS011;38032;53.326;6.472;2024-03-08T04:19:51;33.60;;;18.25;;
52015;SDS011;38032;53.326;6.472;2024-03-08T04:22:17;32.95;;;19.17;;
52015;SDS011;38032;53.326;6.472;2024-03-08T04:24:43;32.90;;;18.52;;
52015;SDS011;38032;53.326;6.472;2024-03-08T04:27:10;32.63;;;18.17;;
52015;SDS011;38032;53.326;6.472;2024-03-08T04:29:36;34.10;;;18.45;;
52015;SDS011;38032;53.326;6.472;2024-03-08T04:32:03;34.60;;;17.60;;
52015;SDS011;38032;53.326;6.472;2024-03-08T04:34:30;33.13;;;18.65;;
52015;SDS011;38032;53.326;6.472;2024-03-08T04:36:57;33.60;;;17.90;;
52015;SDS011;38032;53.326;6.472;2024-03-08T04:39:23;32.08;;;17.60;;
52015;SDS011;38032;53.326;6.472;2024-03-08T04:41:49;35.15;;;18.92;;
52015;SDS011;38032;53.326;6.472;2024-03-08T04:44:16;36.03;;;18.40;;
52015;SDS011;38032;53.326;6.472;2024-03-08T04:46:42;34.65;;;18.92;;
52015;SDS011;38032;53.326;6.472;2024-03-08T04:49:09;33.10;;;17.70;;
52015;SDS011;38032;53.326;6.472;2024-03-08T04:51:36;32.95;;;17.02;;
52015;SDS011;38032;53.326;6.472;2024-03-08T04:54:02;37.70;;;19.90;;
52015;SDS011;38032;53.326;6.472;2024-03-08T04:56:30;35.35;;;19.00;;
52015;SDS011;38032;53.326;6.472;2024-03-08T04:58:55;32.30;;;18.25;;
52015;SDS011;38032;53.326;6.472;2024-03-08T05:01:21;33.38;;;19.00;;
52015;SDS011;38032;53.326;6.472;2024-03-08T05:03:47;34.30;;;16.95;;
52015;SDS011;38032;53.326;6.472;2024-03-08T05:06:15;32.10;;;17.63;;
52015;SDS011;38032;53.326;6.472;2024-03-08T05:08:41;31.00;;;18.05;;
52015;SDS011;38032;53.326;6.472;2024-03-08T05:11:07;32.42;;;17.27;;
52015;SDS011;38032;53.326;6.472;2024-03-08T05:13:34;33.13;;;18.77;;
52015;SDS011;38032;53.326;6.472;2024-03-08T05:16:00;32.58;;;18.73;;
52015;SDS011;38032;53.326;6.472;2024-03-08T05:18:26;35.47;;;18.05;;
52015;SDS011;38032;53.326;6.472;2024-03-08T05:20:53;35.92;;;17.92;;
52015;SDS011;38032;53.326;6.472;2024-03-08T05:23:19;34.78;;;18.15;;
52015;SDS011;38032;53.326;6.472;2024-03-08T05:25:46;36.67;;;18.83;;
52015;SDS011;38032;53.326;6.472;2024-03-08T05:28:12;32.35;;;18.58;;
52015;SDS011;38032;53.326;6.472;2024-03-08T05:30:39;31.48;;;17.52;;
52015;SDS011;38032;53.326;6.472;2024-03-08T05:33:04;32.45;;;17.70;;
52015;SDS011;38032;53.326;6.472;2024-03-08T05:35:30;31.95;;;17.88;;
52015;SDS011;38032;53.326;6.472;2024-03-08T05:37:57;31.17;;;17.63;;
52015;SDS011;38032;53.326;6.472;2024-03-08T05:40:23;39.35;;;18.98;;
52015;SDS011;38032;53.326;6.472;2024-03-08T05:42:49;32.92;;;17.00;;
52015;SDS011;38032;53.326;6.472;2024-03-08T05:45:15;29.83;;;17.27;;
52015;SDS011;38032;53.326;6.472;2024-03-08T05:47:41;33.70;;;18.50;;
52015;SDS011;38032;53.326;6.472;2024-03-08T05:50:07;33.72;;;17.98;;
52015;SDS011;38032;53.326;6.472;2024-03-08T05:52:36;32.63;;;18.10;;
52015;SDS011;38032;53.326;6.472;2024-03-08T05:55:03;35.10;;;17.77;;
52015;SDS011;38032;53.326;6.472;2024-03-08T05:57:32;33.67;;;17.92;;
52015;SDS011;38032;53.326;6.472;2024-03-08T05:59:58;34.35;;;17.05;;
52015;SDS011;38032;53.326;6.472;2024-03-08T06:02:24;30.30;;;17.13;;
52015;SDS011;38032;53.326;6.472;2024-03-08T06:04:50;33.45;;;17.45;;
52015;SDS011;38032;53.326;6.472;2024-03-08T06:07:15;34.97;;;17.58;;
52015;SDS011;38032;53.326;6.472;2024-03-08T06:09:42;29.65;;;17.67;;
52015;SDS011;38032;53.326;6.472;2024-03-08T06:12:11;32.50;;;18.05;;
52015;SDS011;38032;53.326;6.472;2024-03-08T06:14:37;29.88;;;17.27;;
52015;SDS011;38032;53.326;6.472;2024-03-08T06:17:03;32.22;;;17.45;;
52015;SDS011;38032;53.326;6.472;2024-03-08T06:19:32;31.10;;;17.63;;
52015;SDS011;38032;53.326;6.472;2024-03-08T06:21:59;35.28;;;18.58;;
52015;SDS011;38032;53.326;6.472;2024-03-08T06:24:27;34.67;;;18.02;;
52015;SDS011;38032;53.326;6.472;2024-03-08T06:26:53;31.02;;;17.55;;
52015;SDS011;38032;53.326;6.472;2024-03-08T06:29:19;34.35;;;17.48;;
52015;SDS011;38032;53.326;6.472;2024-03-08T06:31:45;29.35;;;16.33;;
52015;SDS011;38032;53.326;6.472;2024-03-08T06:34:10;31.73;;;17.17;;
52015;SDS011;38032;53.326;6.472;2024-03-08T06:36:36;29.85;;;16.63;;
52015;SDS011;38032;53.326;6.472;2024-03-08T06:39:03;30.15;;;17.17;;
52015;SDS011;38032;53.326;6.472;2024-03-08T06:41:35;27.80;;;15.38;;
52015;SDS011;38032;53.326;6.472;2024-03-08T06:44:01;33.03;;;17.08;;
52015;SDS011;38032;53.326;6.472;2024-03-08T06:46:27;29.85;;;17.33;;
52015;SDS011;38032;53.326;6.472;2024-03-08T06:48:53;27.98;;;16.17;;
52015;SDS011;38032;53.326;6.472;2024-03-08T06:51:19;32.35;;;16.85;;
52015;SDS011;38032;53.326;6.472;2024-03-08T06:53:45;29.67;;;15.95;;
52015;SDS011;38032;53.326;6.472;2024-03-08T06:56:10;26.35;;;15.95;;
52015;SDS011;38032;53.326;6.472;2024-03-08T06:58:36;31.95;;;16.45;;
52015;SDS011;38032;53.326;6.472;2024-03-08T07:01:02;28.25;;;16.30;;
52015;SDS011;38032;53.326;6.472;2024-03-08T07:03:32;32.70;;;16.65;;
52015;SDS011;38032;53.326;6.472;2024-03-08T07:05:58;29.48;;;17.42;;
52015;SDS011;38032;53.326;6.472;2024-03-08T07:08:24;31.60;;;17.05;;
52015;SDS011;38032;53.326;6.472;2024-03-08T07:10:52;30.88;;;17.17;;
52015;SDS011;38032;53.326;6.472;2024-03-08T07:13:18;28.10;;;16.50;;
52015;SDS011;38032;53.326;6.472;2024-03-08T07:15:44;32.10;;;17.23;;
52015;SDS011;38032;53.326;6.472;2024-03-08T07:18:11;29.88;;;16.65;;
52015;SDS011;38032;53.326;6.472;2024-03-08T07:20:40;30.25;;;16.80;;
52015;SDS011;38032;53.326;6.472;2024-03-08T07:23:07;28.80;;;16.58;;
52015;SDS011;38032;53.326;6.472;2024-03-08T07:25:33;29.38;;;16.67;;
52015;SDS011;38032;53.326;6.472;2024-03-08T07:28:00;27.85;;;15.60;;
52015;SDS011;38032;53.326;6.472;2024-03-08T07:30:26;27.48;;;16.92;;
52015;SDS011;38032;53.326;6.472;2024-03-08T07:33:08;28.08;;;16.52;;
52015;SDS011;38032;53.326;6.472;2024-03-08T07:35:41;27.98;;;17.13;;
52015;SDS011;38032;53.326;6.472;2024-03-08T07:38:09;29.80;;;16.67;;
52015;SDS011;38032;53.326;6.472;2024-03-08T07:40:37;29.40;;;16.65;;
52015;SDS011;38032;53.326;6.472;2024-03-08T07:43:06;28.40;;;17.13;;
52015;SDS011;38032;53.326;6.472;2024-03-08T07:45:32;27.05;;;16.00;;
52015;SDS011;38032;53.326;6.472;2024-03-08T07:47:58;32.50;;;18.42;;
52015;SDS011;38032;53.326;6.472;2024-03-08T07:50:24;27.92;;;17.25;;
52015;SDS011;38032;53.326;6.472;2024-03-08T07:52:50;27.00;;;16.85;;
52015;SDS011;38032;53.326;6.472;2024-03-08T07:55:16;30.33;;;16.88;;
52015;SDS011;38032;53.326;6.472;2024-03-08T07:57:42;28.23;;;17.90;;
52015;SDS011;38032;53.326;6.472;2024-03-08T08:00:08;30.17;;;18.83;;
52015;SDS011;38032;53.326;6.472;2024-03-08T08:02:34;27.65;;;17.00;;
52015;SDS011;38032;53.326;6.472;2024-03-08T08:05:01;28.88;;;17.67;;
52015;SDS011;38032;53.326;6.472;2024-03-08T08:07:27;28.08;;;17.90;;
52015;SDS011;38032;53.326;6.472;2024-03-08T08:09:53;27.13;;;16.90;;
52015;SDS011;38032;53.326;6.472;2024-03-08T08:12:19;30.65;;;18.17;;
52015;SDS011;38032;53.326;6.472;2024-03-08T08:14:46;28.73;;;19.23;;
52015;SDS011;38032;53.326;6.472;2024-03-08T08:17:12;27.88;;;18.65;;
52015;SDS011;38032;53.326;6.472;2024-03-08T08:19:37;26.88;;;18.27;;
52015;SDS011;38032;53.326;6.472;2024-03-08T08:22:05;29.52;;;18.15;;
52015;SDS011;38032;53.326;6.472;2024-03-08T08:24:34;30.88;;;18.63;;
52015;SDS011;38032;53.326;6.472;2024-03-08T08:27:02;25.90;;;17.73;;
52015;SDS011;38032;53.326;6.472;2024-03-08T08:29:29;26.27;;;18.30;;
52015;SDS011;38032;53.326;6.472;2024-03-08T08:31:57;27.75;;;18.52;;
52015;SDS011;38032;53.326;6.472;2024-03-08T08:34:24;29.33;;;18.67;;
52015;SDS011;38032;53.326;6.472;2024-03-08T08:36:51;27.50;;;18.33;;
52015;SDS011;38032;53.326;6.472;2024-03-08T08:39:18;24.80;;;17.80;;
52015;SDS011;38032;53.326;6.472;2024-03-08T08:41:44;25.90;;;17.80;;
52015;SDS011;38032;53.326;6.472;2024-03-08T08:44:10;23.63;;;16.75;;
52015;SDS011;38032;53.326;6.472;2024-03-08T08:46:37;28.58;;;18.27;;
52015;SDS011;38032;53.326;6.472;2024-03-08T08:49:04;25.50;;;18.10;;
52015;SDS011;38032;53.326;6.472;2024-03-08T08:51:31;25.58;;;17.63;;
52015;SDS011;38032;53.326;6.472;2024-03-08T08:53:59;23.52;;;17.70;;
52015;SDS011;38032;53.326;6.472;2024-03-08T08:56:25;23.10;;;17.25;;
52015;SDS011;38032;53.326;6.472;2024-03-08T08:58:51;22.92;;;17.52;;
52015;SDS011;38032;53.326;6.472;2024-03-08T09:01:18;24.98;;;17.13;;
52015;SDS011;38032;53.326;6.472;2024-03-08T09:03:45;21.58;;;16.52;;
52015;SDS011;38032;53.326;6.472;2024-03-08T09:06:12;24.83;;;17.67;;
52015;SDS011;38032;53.326;6.472;2024-03-08T09:08:39;25.65;;;17.67;;
52015;SDS011;38032;53.326;6.472;2024-03-08T09:11:05;26.13;;;17.63;;
52015;SDS011;38032;53.326;6.472;2024-03-08T09:13:31;24.00;;;16.83;;
52015;SDS011;38032;53.326;6.472;2024-03-08T09:15:59;26.02;;;16.95;;
52015;SDS011;38032;53.326;6.472;2024-03-08T09:18:25;21.90;;;16.05;;
52015;SDS011;38032;53.326;6.472;2024-03-08T09:20:51;21.77;;;16.38;;
52015;SDS011;38032;53.326;6.472;2024-03-08T09:23:19;21.85;;;16.27;;
52015;SDS011;38032;53.326;6.472;2024-03-08T09:25:45;25.13;;;16.77;;
52015;SDS011;38032;53.326;6.472;2024-03-08T09:28:11;22.85;;;16.67;;
52015;SDS011;38032;53.326;6.472;2024-03-08T09:30:38;21.30;;;16.73;;
52015;SDS011;38032;53.326;6.472;2024-03-08T09:33:04;21.20;;;16.67;;
52015;SDS011;38032;53.326;6.472;2024-03-08T09:35:31;23.58;;;17.10;;
52015;SDS011;38032;53.326;6.472;2024-03-08T09:37:57;22.83;;;16.73;;
52015;SDS011;38032;53.326;6.472;2024-03-08T09:40:23;25.95;;;17.52;;
52015;SDS011;38032;53.326;6.472;2024-03-08T09:42:50;24.52;;;18.02;;
52015;SDS011;38032;53.326;6.472;2024-03-08T09:45:17;24.38;;;18.20;;
52015;SDS011;38032;53.326;6.472;2024-03-08T09:47:47;22.60;;;17.48;;
52015;SDS011;38032;53.326;6.472;2024-03-08T09:50:14;24.15;;;18.48;;
52015;SDS011;38032;53.326;6.472;2024-03-08T09:52:41;24.70;;;18.33;;
52015;SDS011;38032;53.326;6.472;2024-03-08T09:55:10;24.30;;;19.63;;
52015;SDS011;38032;53.326;6.472;2024-03-08T09:57:37;24.00;;;19.25;;
52015;SDS011;38032;53.326;6.472;2024-03-08T10:00:04;27.00;;;19.70;;
52015;SDS011;38032;53.326;6.472;2024-03-08T10:02:45;23.48;;;18.88;;
52015;SDS011;38032;53.326;6.472;2024-03-08T10:05:12;24.77;;;19.17;;
52015;SDS011;38032;53.326;6.472;2024-03-08T10:07:39;24.15;;;17.85;;
52015;SDS011;38032;53.326;6.472;2024-03-08T10:10:05;23.33;;;18.73;;
52015;SDS011;38032;53.326;6.472;2024-03-08T10:12:34;23.13;;;17.63;;
52015;SDS011;38032;53.326;6.472;2024-03-08T10:15:00;24.63;;;18.42;;
52015;SDS011;38032;53.326;6.472;2024-03-08T10:17:26;23.90;;;17.95;;
52015;SDS011;38032;53.326;6.472;2024-03-08T10:19:57;24.13;;;18.52;;
52015;SDS011;38032;53.326;6.472;2024-03-08T10:22:25;23.17;;;17.88;;
52015;SDS011;38032;53.326;6.472;2024-03-08T10:24:51;25.00;;;19.10;;
52015;SDS011;38032;53.326;6.472;2024-03-08T10:27:17;21.17;;;17.90;;
52015;SDS011;38032;53.326;6.472;2024-03-08T10:29:46;22.23;;;18.30;;
52015;SDS011;38032;53.326;6.472;2024-03-08T10:32:13;23.25;;;18.15;;
52015;SDS011;38032;53.326;6.472;2024-03-08T10:34:39;23.75;;;18.02;;
52015;SDS011;38032;53.326;6.472;2024-03-08T10:37:07;25.98;;;19.60;;
52015;SDS011;38032;53.326;6.472;2024-03-08T10:39:42;25.42;;;18.73;;
52015;SDS011;38032;53.326;6.472;2024-03-08T10:42:20;24.23;;;18.98;;
52015;SDS011;38032;53.326;6.472;2024-03-08T10:44:53;24.80;;;18.58;;
52015;SDS011;38032;53.326;6.472;2024-03-08T10:47:37;26.75;;;18.52;;
52015;SDS011;38032;53.326;6.472;2024-03-08T10:52:43;24.42;;;18.25;;
52015;SDS011;38032;53.326;6.472;2024-03-08T10:55:09;22.90;;;18.35;;
52015;SDS011;38032;53.326;6.472;2024-03-08T10:57:38;24.65;;;18.33;;
52015;SDS011;38032;53.326;6.472;2024-03-08T11:00:05;22.63;;;17.63;;
52015;SDS011;38032;53.326;6.472;2024-03-08T11:02:35;24.30;;;18.25;;
52015;SDS011;38032;53.326;6.472;2024-03-08T11:05:02;25.05;;;19.35;;
52015;SDS011;38032;53.326;6.472;2024-03-08T11:07:33;22.90;;;19.38;;
52015;SDS011;38032;53.326;6.472;2024-03-08T11:10:03;24.88;;;18.80;;
52015;SDS011;38032;53.326;6.472;2024-03-08T11:12:35;23.38;;;18.75;;
52015;SDS011;38032;53.326;6.472;2024-03-08T11:15:03;26.05;;;18.33;;
52015;SDS011;38032;53.326;6.472;2024-03-08T11:20:08;24.60;;;19.27;;
52015;SDS011;38032;53.326;6.472;2024-03-08T11:22:41;23.60;;;18.73;;
52015;SDS011;38032;53.326;6.472;2024-03-08T11:25:30;26.35;;;19.15;;
52015;SDS011;38032;53.326;6.472;2024-03-08T11:28:12;25.13;;;19.08;;
52015;SDS011;38032;53.326;6.472;2024-03-08T11:30:45;27.20;;;19.42;;
52015;SDS011;38032;53.326;6.472;2024-03-08T11:33:34;26.38;;;19.25;;
52015;SDS011;38032;53.326;6.472;2024-03-08T11:38:40;26.92;;;19.65;;
52015;SDS011;38032;53.326;6.472;2024-03-08T11:41:07;26.35;;;19.45;;
52015;SDS011;38032;53.326;6.472;2024-03-08T11:43:34;24.98;;;19.58;;
52015;SDS011;38032;53.326;6.472;2024-03-08T11:46:08;25.95;;;19.98;;
52015;SDS011;38032;53.326;6.472;2024-03-08T11:48:35;26.63;;;20.27;;
52015;SDS011;38032;53.326;6.472;2024-03-08T11:51:01;25.55;;;20.23;;
52015;SDS011;38032;53.326;6.472;2024-03-08T11:53:28;25.48;;;20.00;;
52015;SDS011;38032;53.326;6.472;2024-03-08T11:55:54;25.55;;;19.45;;
52015;SDS011;38032;53.326;6.472;2024-03-08T11:58:29;26.65;;;19.73;;
52015;SDS011;38032;53.326;6.472;2024-03-08T12:01:02;29.90;;;20.73;;
52015;SDS011;38032;53.326;6.472;2024-03-08T12:03:29;26.65;;;19.77;;
52015;SDS011;38032;53.326;6.472;2024-03-08T12:05:59;26.15;;;19.58;;
52015;SDS011;38032;53.326;6.472;2024-03-08T12:08:25;26.65;;;19.20;;
52015;SDS011;38032;53.326;6.472;2024-03-08T12:10:53;29.50;;;20.77;;
52015;SDS011;38032;53.326;6.472;2024-03-08T12:13:26;25.90;;;19.13;;
52015;SDS011;38032;53.326;6.472;2024-03-08T12:15:58;27.35;;;19.50;;
52015;SDS011;38032;53.326;6.472;2024-03-08T12:18:25;27.13;;;19.30;;
52015;SDS011;38032;53.326;6.472;2024-03-08T12:21:03;30.08;;;19.98;;
52015;SDS011;38032;53.326;6.472;2024-03-08T12:23:32;26.58;;;19.27;;
52015;SDS011;38032;53.326;6.472;2024-03-08T12:26:10;28.50;;;19.80;;
52015;SDS011;38032;53.326;6.472;2024-03-08T12:28:39;29.02;;;19.10;;
52015;SDS011;38032;53.326;6.472;2024-03-08T12:31:06;27.77;;;18.83;;
52015;SDS011;38032;53.326;6.472;2024-03-08T12:33:49;25.38;;;19.00;;
52015;SDS011;38032;53.326;6.472;2024-03-08T12:36:16;28.55;;;20.23;;
52015;SDS011;38032;53.326;6.472;2024-03-08T12:38:44;28.30;;;19.85;;
52015;SDS011;38032;53.326;6.472;2024-03-08T12:41:13;34.03;;;19.65;;
52015;SDS011;38032;53.326;6.472;2024-03-08T12:43:40;30.05;;;20.17;;
52015;SDS011;38032;53.326;6.472;2024-03-08T12:46:06;29.77;;;20.20;;
52015;SDS011;38032;53.326;6.472;2024-03-08T12:48:34;26.95;;;19.65;;
52015;SDS011;38032;53.326;6.472;2024-03-08T12:51:05;29.80;;;19.27;;
52015;SDS011;38032;53.326;6.472;2024-03-08T12:53:32;26.50;;;18.95;;
52015;SDS011;38032;53.326;6.472;2024-03-08T12:55:58;27.90;;;18.17;;
52015;SDS011;38032;53.326;6.472;2024-03-08T12:58:24;26.95;;;18.88;;
52015;SDS011;38032;53.326;6.472;2024-03-08T13:00:51;30.88;;;20.23;;
52015;SDS011;38032;53.326;6.472;2024-03-08T13:03:17;26.67;;;18.52;;
52015;SDS011;38032;53.326;6.472;2024-03-08T13:05:43;28.38;;;19.55;;
52015;SDS011;38032;53.326;6.472;2024-03-08T13:08:09;26.17;;;18.10;;
52015;SDS011;38032;53.326;6.472;2024-03-08T13:10:38;28.08;;;18.75;;
52015;SDS011;38032;53.326;6.472;2024-03-08T13:13:05;25.83;;;17.50;;
52015;SDS011;38032;53.326;6.472;2024-03-08T13:15:31;25.55;;;18.17;;
52015;SDS011;38032;53.326;6.472;2024-03-08T13:17:58;26.15;;;17.67;;
52015;SDS011;38032;53.326;6.472;2024-03-08T13:20:25;27.90;;;17.33;;
52015;SDS011;38032;53.326;6.472;2024-03-08T13:22:53;24.33;;;16.58;;
52015;SDS011;38032;53.326;6.472;2024-03-08T13:25:20;25.23;;;17.63;;
52015;SDS011;38032;53.326;6.472;2024-03-08T13:27:46;25.73;;;17.45;;
52015;SDS011;38032;53.326;6.472;2024-03-08T13:30:12;24.30;;;17.45;;
52015;SDS011;38032;53.326;6.472;2024-03-08T13:32:40;25.50;;;17.90;;
52015;SDS011;38032;53.326;6.472;2024-03-08T13:35:10;24.58;;;17.45;;
52015;SDS011;38032;53.326;6.472;2024-03-08T13:37:49;27.83;;;18.15;;
52015;SDS011;38032;53.326;6.472;2024-03-08T13:40:16;24.50;;;16.65;;
52015;SDS011;38032;53.326;6.472;2024-03-08T13:42:46;23.88;;;17.15;;
52015;SDS011;38032;53.326;6.472;2024-03-08T13:45:14;23.75;;;17.08;;
52015;SDS011;38032;53.326;6.472;2024-03-08T13:47:43;24.27;;;16.48;;
52015;SDS011;38032;53.326;6.472;2024-03-08T13:50:10;26.65;;;16.45;;
52015;SDS011;38032;53.326;6.472;2024-03-08T13:52:37;25.08;;;16.83;;
52015;SDS011;38032;53.326;6.472;2024-03-08T13:55:05;25.95;;;16.52;;
52015;SDS011;38032;53.326;6.472;2024-03-08T13:57:32;25.65;;;16.95;;
52015;SDS011;38032;53.326;6.472;2024-03-08T13:59:58;24.00;;;15.93;;
52015;SDS011;38032;53.326;6.472;2024-03-08T14:02:25;27.40;;;16.60;;
52015;SDS011;38032;53.326;6.472;2024-03-08T14:04:53;25.33;;;17.65;;
52015;SDS011;38032;53.326;6.472;2024-03-08T14:07:21;26.70;;;17.48;;
52015;SDS011;38032;53.326;6.472;2024-03-08T14:09:48;25.58;;;16.83;;
52015;SDS011;38032;53.326;6.472;2024-03-08T14:12:15;23.17;;;16.75;;
52015;SDS011;38032;53.326;6.472;2024-03-08T14:14:41;24.52;;;17.05;;
52015;SDS011;38032;53.326;6.472;2024-03-08T14:17:09;25.75;;;17.30;;
52015;SDS011;38032;53.326;6.472;2024-03-08T14:19:36;25.42;;;17.48;;
52015;SDS011;38032;53.326;6.472;2024-03-08T14:22:04;21.52;;;16.13;;
52015;SDS011;38032;53.326;6.472;2024-03-08T14:24:30;25.48;;;17.58;;
52015;SDS011;38032;53.326;6.472;2024-03-08T14:26:56;22.92;;;15.82;;
52015;SDS011;38032;53.326;6.472;2024-03-08T14:29:25;23.90;;;17.08;;